createdAt,value
2022-12-05T00:00:32.800Z,9.711791
2022-12-05T00:01:32.883Z,9.712016
2022-12-05T00:02:33.451Z,9.712037
2022-12-05T00:03:33.398Z,9.711853
2022-12-05T00:04:33.438Z,9.711834
2022-12-05T00:05:32.753Z,9.711837
2022-12-05T00:06:32.754Z,9.711870
2022-12-05T00:07:33.462Z,9.711757
2022-12-05T00:08:32.730Z,9.711870
2022-12-05T00:09:33.398Z,9.711707
2022-12-05T00:10:32.716Z,9.711377
2022-12-05T00:11:32.707Z,9.711254
2022-12-05T00:12:32.702Z,9.711617
2022-12-05T00:13:32.690Z,9.711809
2022-12-05T00:14:33.316Z,9.711714
2022-12-05T00:15:32.684Z,9.711567
2022-12-05T00:16:32.763Z,9.711734
2022-12-05T00:17:33.378Z,9.711683
2022-12-05T00:18:32.643Z,9.711741
2022-12-05T00:19:32.647Z,9.711710
2022-12-05T00:20:32.637Z,9.711667
2022-12-05T00:21:32.621Z,9.711711
2022-12-05T00:22:32.628Z,9.711741
2022-12-05T00:23:32.613Z,9.711702
2022-12-05T00:24:32.611Z,9.711686
2022-12-05T00:25:32.597Z,9.711707
2022-12-05T00:26:32.588Z,9.711689
2022-12-05T00:30:15.727Z,9.711684
2022-12-05T00:31:15.764Z,9.711710
2022-12-05T00:32:15.788Z,9.711690
2022-12-05T00:33:15.684Z,9.711695
2022-12-05T00:34:15.677Z,9.711713
2022-12-05T00:35:17.586Z,9.711679
2022-12-05T00:36:15.670Z,9.711677
2022-12-05T00:37:15.653Z,9.711669
2022-12-05T00:38:15.652Z,9.711688
2022-12-05T00:39:17.485Z,9.711684
2022-12-05T00:40:15.640Z,9.711697
2022-12-05T00:41:17.487Z,9.711652
2022-12-05T00:42:15.612Z,9.711666
2022-12-05T00:43:15.603Z,9.711721
2022-12-05T00:44:15.602Z,9.711733
2022-12-05T00:45:15.589Z,9.711772
2022-12-05T00:46:15.676Z,9.711739
2022-12-05T00:47:15.780Z,9.711734
2022-12-05T00:48:15.564Z,9.711670
2022-12-05T00:49:16.069Z,9.711831
2022-12-05T00:50:15.547Z,9.711976
2022-12-05T00:51:15.542Z,9.712065
2022-12-05T00:52:15.529Z,9.712002
2022-12-05T00:53:15.522Z,9.711596
2022-12-05T00:54:15.663Z,9.711204
2022-12-05T00:55:16.508Z,9.711222
2022-12-05T00:56:16.498Z,9.710633
2022-12-05T00:57:15.496Z,9.711459
2022-12-05T00:58:15.485Z,9.711539
2022-12-05T00:59:15.483Z,9.711612
2022-12-05T01:00:15.471Z,9.711695
2022-12-05T01:01:15.561Z,9.711856
2022-12-05T01:02:16.242Z,9.711627
2022-12-05T01:03:15.486Z,9.711717
2022-12-05T01:04:15.439Z,9.711535
2022-12-05T01:05:15.432Z,9.711288
2022-12-05T01:06:15.438Z,9.711199
2022-12-05T01:07:15.410Z,9.711236
2022-12-05T01:08:15.458Z,9.711346
2022-12-05T01:09:15.419Z,9.711210
2022-12-05T01:10:15.398Z,9.710977
2022-12-05T01:11:15.385Z,9.710746
2022-12-05T01:12:16.451Z,9.710610
2022-12-05T01:13:15.368Z,9.710896
2022-12-05T01:14:15.395Z,9.711071
2022-12-05T01:15:15.350Z,9.711724
2022-12-05T01:16:17.208Z,9.711677
2022-12-05T01:17:15.330Z,9.711864
2022-12-05T01:18:15.331Z,9.711794
2022-12-05T01:19:15.320Z,9.711794
2022-12-05T01:20:15.930Z,9.711782
2022-12-05T01:21:15.991Z,9.711779
2022-12-05T01:22:15.292Z,9.711699
2022-12-05T01:23:15.279Z,9.711666
2022-12-05T01:24:15.271Z,9.711654
2022-12-05T01:25:15.275Z,9.711759
2022-12-05T01:26:15.267Z,9.711670
2022-12-05T01:27:15.255Z,9.711591
2022-12-05T01:28:15.245Z,9.711648
2022-12-05T01:29:15.326Z,9.711642
2022-12-05T01:30:17.023Z,9.711640
2022-12-05T01:31:15.258Z,9.711612
2022-12-05T01:32:15.384Z,9.711576
2022-12-05T01:33:15.203Z,9.711696
2022-12-05T01:34:15.207Z,9.711535
2022-12-05T01:35:15.191Z,9.711549
2022-12-05T01:36:15.180Z,9.711663
2022-12-05T01:37:15.588Z,9.711587
2022-12-05T01:38:15.166Z,9.711660
2022-12-05T01:39:15.160Z,9.711671
2022-12-05T01:40:15.158Z,9.711469
2022-12-05T01:41:15.151Z,9.711513
2022-12-05T01:42:15.141Z,9.711493
2022-12-05T01:43:15.126Z,9.711677
2022-12-05T01:44:15.126Z,9.711611
2022-12-05T01:45:16.013Z,9.711529
2022-12-05T01:46:15.166Z,9.711648
2022-12-05T01:47:15.090Z,9.711653
2022-12-05T01:48:15.091Z,9.711679
2022-12-05T01:49:15.102Z,9.711466
2022-12-05T01:50:15.066Z,9.711553
2022-12-05T01:51:15.063Z,9.711534
2022-12-05T01:52:15.048Z,9.711571
2022-12-05T01:53:15.041Z,9.711620
2022-12-05T01:54:15.418Z,9.711806
2022-12-05T01:55:15.328Z,9.711596
2022-12-05T01:56:15.023Z,9.711716
2022-12-05T01:57:15.011Z,9.711557
2022-12-05T01:58:15.016Z,9.711657
2022-12-05T01:59:15.011Z,9.711533
2022-12-05T02:00:14.987Z,9.711513
2022-12-05T02:01:15.039Z,9.711554
2022-12-05T02:02:15.531Z,9.711624
2022-12-05T02:03:14.962Z,9.711545
2022-12-05T02:04:14.956Z,9.711573
2022-12-05T02:05:14.948Z,9.711592
2022-12-05T02:06:14.972Z,9.711559
2022-12-05T02:07:15.520Z,9.711562
2022-12-05T02:08:14.978Z,9.711422
2022-12-05T02:09:14.907Z,9.711507
2022-12-05T02:10:14.912Z,9.711576
2022-12-05T02:11:14.891Z,9.711533
2022-12-05T02:12:14.887Z,9.711496
2022-12-05T02:13:14.890Z,9.711491
2022-12-05T02:14:14.875Z,9.711507
2022-12-05T02:15:14.865Z,9.711546
2022-12-05T02:16:14.932Z,9.711617
2022-12-05T02:17:14.927Z,9.711571
2022-12-05T02:18:14.829Z,9.711570
2022-12-05T02:19:14.822Z,9.711443
2022-12-05T02:20:14.827Z,9.711564
2022-12-05T02:21:14.804Z,9.711539
2022-12-05T02:22:14.809Z,9.711581
2022-12-05T02:23:14.790Z,9.711926
2022-12-05T02:24:14.795Z,9.711759
2022-12-05T02:25:14.777Z,9.711657
2022-12-05T02:26:14.780Z,9.711694
2022-12-05T02:27:14.760Z,9.711555
2022-12-05T02:28:15.506Z,9.711637
2022-12-05T02:29:14.746Z,9.711654
2022-12-05T02:30:14.744Z,9.711745
2022-12-05T02:31:14.775Z,9.711614
2022-12-05T02:32:14.725Z,9.711737
2022-12-05T02:33:14.715Z,9.711763
2022-12-05T02:34:14.708Z,9.711810
2022-12-05T02:35:14.695Z,9.711752
2022-12-05T02:36:14.697Z,9.711559
2022-12-05T02:37:14.686Z,9.711620
2022-12-05T02:38:14.674Z,9.711603
2022-12-05T02:39:14.672Z,9.711392
2022-12-05T02:40:14.660Z,9.711663
2022-12-05T02:41:14.650Z,9.711735
2022-12-05T02:42:14.640Z,9.711849
2022-12-05T02:43:15.522Z,9.711814
2022-12-05T02:44:14.630Z,9.711686
2022-12-05T02:45:14.619Z,9.711716
2022-12-05T02:46:15.583Z,9.711699
2022-12-05T02:47:14.614Z,9.711851
2022-12-05T02:48:14.597Z,9.711760
2022-12-05T02:49:14.587Z,9.711727
2022-12-05T02:50:14.583Z,9.711583
2022-12-05T02:51:14.572Z,9.711663
2022-12-05T02:52:14.618Z,9.711771
2022-12-05T02:53:14.564Z,9.711774
2022-12-05T02:54:14.543Z,9.711972
2022-12-05T02:55:15.506Z,9.711932
2022-12-05T02:56:14.534Z,9.711783
2022-12-05T02:57:14.639Z,9.711987
2022-12-05T02:58:14.528Z,9.711848
2022-12-05T02:59:19.843Z,9.711714
2022-12-05T03:00:16.498Z,9.711545
2022-12-05T03:01:14.571Z,9.711576
2022-12-05T03:02:14.491Z,9.711758
2022-12-05T03:03:14.474Z,9.711884
2022-12-05T03:04:14.510Z,9.711611
2022-12-05T03:05:15.480Z,9.711687
2022-12-05T03:06:14.454Z,9.712105
2022-12-05T03:07:14.436Z,9.712009
2022-12-05T03:08:14.499Z,9.712016
2022-12-05T03:09:14.421Z,9.712230
2022-12-05T03:10:14.423Z,9.712073
2022-12-05T03:11:14.425Z,9.712233
2022-12-05T03:12:14.401Z,9.711807
2022-12-05T03:13:17.018Z,9.711810
2022-12-05T03:14:14.381Z,9.711977
2022-12-05T03:15:14.385Z,9.711971
2022-12-05T03:16:15.425Z,9.711837
2022-12-05T03:17:14.365Z,9.711804
2022-12-05T03:18:14.361Z,9.712105
2022-12-05T03:19:14.353Z,9.711810
2022-12-05T03:20:14.360Z,9.711646
2022-12-05T03:21:14.342Z,9.711692
2022-12-05T03:22:14.316Z,9.711899
2022-12-05T03:23:14.310Z,9.711741
2022-12-05T03:24:14.312Z,9.711592
2022-12-05T03:25:14.317Z,9.712018
2022-12-05T03:26:14.291Z,9.711759
2022-12-05T03:27:14.280Z,9.711920
2022-12-05T03:28:14.272Z,9.711796
2022-12-05T03:29:14.263Z,9.711755
2022-12-05T03:30:14.256Z,9.711705
2022-12-05T03:31:14.356Z,9.711905
2022-12-05T03:32:14.264Z,9.711835
2022-12-05T03:33:14.231Z,9.712029
2022-12-05T03:34:14.233Z,9.712107
2022-12-05T03:35:14.227Z,9.711843
2022-12-05T03:36:14.213Z,9.711892
2022-12-05T03:37:14.235Z,9.712098
2022-12-05T03:38:14.191Z,9.711637
2022-12-05T03:39:16.010Z,9.711446
2022-12-05T03:40:14.223Z,9.712057
2022-12-05T03:41:14.175Z,9.712453
2022-12-05T03:42:15.013Z,9.711975
2022-12-05T03:43:14.152Z,9.712120
2022-12-05T03:44:15.091Z,9.711757
2022-12-05T03:45:14.143Z,9.711442
2022-12-05T03:46:14.206Z,9.711889
2022-12-05T03:47:14.165Z,9.711948
2022-12-05T03:48:14.132Z,9.712254
2022-12-05T03:49:14.105Z,9.712209
2022-12-05T03:50:14.108Z,9.711669
2022-12-05T03:51:16.013Z,9.711613
2022-12-05T03:52:14.086Z,9.711556
2022-12-05T03:53:21.396Z,9.711659
2022-12-05T03:54:16.063Z,9.711661
2022-12-05T03:55:14.062Z,9.711624
2022-12-05T03:56:14.050Z,9.711572
2022-12-05T03:57:14.044Z,9.711569
2022-12-05T03:58:14.038Z,9.711586
2022-12-05T03:59:14.023Z,9.711600
2022-12-05T04:00:14.028Z,9.711734
2022-12-05T04:01:14.032Z,9.711793
2022-12-05T04:02:14.006Z,9.711693
2022-12-05T04:03:14.066Z,9.711677
2022-12-05T04:04:13.985Z,9.711711
2022-12-05T04:05:13.978Z,9.711544
2022-12-05T04:06:13.971Z,9.711497
2022-12-05T04:07:13.958Z,9.711499
2022-12-05T04:08:14.023Z,9.711526
2022-12-05T04:09:17.288Z,9.711520
2022-12-05T04:10:14.939Z,9.711518
2022-12-05T04:11:13.923Z,9.711567
2022-12-05T04:12:14.532Z,9.711580
2022-12-05T04:13:13.910Z,9.711613
2022-12-05T04:14:13.919Z,9.711613
2022-12-05T04:15:13.909Z,9.711582
2022-12-05T04:16:13.943Z,9.711581
2022-12-05T04:17:13.874Z,9.711549
2022-12-05T04:18:13.868Z,9.711674
2022-12-05T04:19:14.516Z,9.711638
2022-12-05T04:20:13.898Z,9.711844
2022-12-05T04:21:13.842Z,9.711740
2022-12-05T04:22:13.848Z,9.711832
2022-12-05T04:42:21.676Z,9.711777
2022-12-05T04:43:21.670Z,9.711529
2022-12-05T04:44:22.643Z,9.710861
2022-12-05T04:45:21.664Z,9.711148
2022-12-05T04:46:22.700Z,9.711190
2022-12-05T04:47:21.649Z,9.711436
2022-12-05T04:48:21.626Z,9.711268
2022-12-05T04:49:22.648Z,9.711060
2022-12-05T04:50:21.629Z,9.710990
2022-12-05T04:51:21.611Z,9.710425
2022-12-05T04:52:21.604Z,9.711008
2022-12-05T04:53:21.602Z,9.711576
2022-12-05T04:54:21.586Z,9.711545
2022-12-05T04:55:21.633Z,9.711555
2022-12-05T04:56:21.604Z,9.711531
2022-12-05T04:57:22.562Z,9.711430
2022-12-05T04:58:21.563Z,9.710918
2022-12-05T04:59:21.546Z,9.710923
2022-12-05T05:00:21.560Z,9.710923
2022-12-05T05:01:21.583Z,9.711408
2022-12-05T05:02:21.595Z,9.711306
2022-12-05T05:03:21.570Z,9.711720
2022-12-05T05:04:21.505Z,9.711439
2022-12-05T05:05:23.132Z,9.711432
2022-12-05T05:06:21.490Z,9.711852
2022-12-05T05:07:22.128Z,9.711958
2022-12-05T05:08:21.570Z,9.712152
2022-12-05T05:09:21.471Z,9.711451
2022-12-05T05:10:22.456Z,9.711177
2022-12-05T05:11:21.449Z,9.711192
2022-12-05T05:12:21.445Z,9.711192
2022-12-05T05:13:21.461Z,9.711192
2022-12-05T05:14:21.458Z,9.711192
2022-12-05T05:15:22.052Z,9.711045
2022-12-05T05:16:21.478Z,9.711281
2022-12-05T05:17:21.417Z,9.711929
2022-12-05T05:18:21.399Z,9.711801
2022-12-05T05:19:24.054Z,9.711525
2022-12-05T05:20:22.047Z,9.711231
2022-12-05T05:21:21.368Z,9.711003
2022-12-05T05:22:21.365Z,9.711003
2022-12-05T05:23:21.373Z,9.711003
2022-12-05T05:24:21.350Z,9.711003
2022-12-05T05:25:21.359Z,9.711003
2022-12-05T05:26:21.345Z,9.711003
2022-12-05T05:27:21.337Z,9.711318
2022-12-05T05:28:22.050Z,9.711436
2022-12-05T05:29:21.307Z,9.711464
2022-12-05T05:30:25.145Z,9.711525
2022-12-05T05:31:22.558Z,9.711598
2022-12-05T05:32:54.080Z,9.711577
2022-12-05T05:33:21.312Z,9.711369
2022-12-05T05:34:21.271Z,9.711281
2022-12-05T05:35:21.267Z,9.711398
2022-12-05T05:36:21.251Z,9.711112
2022-12-05T05:37:21.246Z,9.711174
2022-12-05T05:38:21.242Z,9.711237
2022-12-05T05:39:21.226Z,9.711409
2022-12-05T05:40:21.225Z,9.711306
2022-12-05T05:41:21.221Z,9.711446
2022-12-05T05:42:23.154Z,9.711514
2022-12-05T05:43:21.221Z,9.711407
2022-12-05T05:44:22.200Z,9.711515
2022-12-05T05:45:21.187Z,9.711375
2022-12-05T05:46:21.211Z,9.711344
2022-12-05T05:47:21.177Z,9.711267
2022-12-05T05:48:22.078Z,9.711336
2022-12-05T05:49:21.160Z,9.711399
2022-12-05T05:50:22.124Z,9.711300
2022-12-05T05:51:23.076Z,9.711550
2022-12-05T05:52:24.652Z,9.711321
2022-12-05T05:53:21.149Z,9.711389
2022-12-05T05:54:22.653Z,9.711279
2022-12-05T05:55:21.099Z,9.711436
2022-12-05T05:56:22.053Z,9.711544
2022-12-05T05:57:22.100Z,9.711548
2022-12-05T05:58:21.656Z,9.711518
2022-12-05T05:59:21.117Z,9.711340
2022-12-05T06:00:21.091Z,9.711072
2022-12-05T06:01:21.115Z,9.711002
2022-12-05T06:02:21.237Z,9.711055
2022-12-05T06:03:21.204Z,9.711307
2022-12-05T06:04:21.093Z,9.711416
2022-12-05T06:05:21.023Z,9.711608
2022-12-05T06:06:21.063Z,9.711253
2022-12-05T06:07:21.014Z,9.711497
2022-12-05T06:08:21.134Z,9.711566
2022-12-05T06:09:20.994Z,9.711383
2022-12-05T06:10:20.990Z,9.711538
2022-12-05T06:11:25.853Z,9.711519
2022-12-05T06:12:22.977Z,9.711583
2022-12-05T06:13:20.974Z,9.711358
2022-12-05T06:14:20.953Z,9.711543
2022-12-05T06:15:20.945Z,9.711330
2022-12-05T06:16:21.038Z,9.711014
2022-12-05T06:17:20.953Z,9.710947
2022-12-05T06:18:20.932Z,9.711456
2022-12-05T06:19:20.919Z,9.711550
2022-12-05T06:20:22.583Z,9.711741
2022-12-05T06:21:20.903Z,9.711637
2022-12-05T06:22:21.676Z,9.711733
2022-12-05T06:23:21.588Z,9.711595
2022-12-05T06:24:20.878Z,9.711609
2022-12-05T06:25:20.863Z,9.711538
2022-12-05T06:26:24.616Z,9.711652
2022-12-05T06:27:20.853Z,9.711601
2022-12-05T06:28:22.665Z,9.711632
2022-12-05T06:29:25.336Z,9.711675
2022-12-05T06:30:25.775Z,9.711663
2022-12-05T06:31:21.706Z,9.711674
2022-12-05T06:32:21.587Z,9.711662
2022-12-05T06:33:20.806Z,9.711641
2022-12-05T06:34:20.798Z,9.711650
2022-12-05T06:35:22.655Z,9.711737
2022-12-05T06:36:20.784Z,9.711728
2022-12-05T06:37:21.673Z,9.711942
2022-12-05T06:38:22.679Z,9.711842
2022-12-05T06:39:22.677Z,9.712205
2022-12-05T06:40:20.777Z,9.711791
2022-12-05T06:41:20.752Z,9.711643
2022-12-05T06:42:20.751Z,9.711767
2022-12-05T06:43:20.735Z,9.711858
2022-12-05T06:44:21.667Z,9.711734
2022-12-05T06:45:20.724Z,9.711738
2022-12-05T06:46:20.723Z,9.711703
2022-12-05T06:47:20.704Z,9.711777
2022-12-05T06:48:20.686Z,9.711566
2022-12-05T06:49:23.148Z,9.711549
2022-12-05T06:50:20.673Z,9.711617
2022-12-05T06:51:20.668Z,9.711638
2022-12-05T06:52:20.689Z,9.711563
2022-12-05T06:53:20.645Z,9.711403
2022-12-05T06:54:20.644Z,9.711600
2022-12-05T06:55:20.637Z,9.711639
2022-12-05T06:56:20.632Z,9.711692
2022-12-05T06:57:20.624Z,9.711660
2022-12-05T06:58:20.616Z,9.711553
2022-12-05T06:59:20.599Z,9.711537
2022-12-05T07:00:20.593Z,9.711717
2022-12-05T07:01:20.678Z,9.711626
2022-12-05T07:02:20.627Z,9.711623
2022-12-05T07:03:20.567Z,9.711468
2022-12-05T07:04:20.563Z,9.711787
2022-12-05T07:05:20.575Z,9.711796
2022-12-05T07:06:20.547Z,9.711839
2022-12-05T07:07:20.650Z,9.711600
2022-12-05T07:08:20.606Z,9.711573
2022-12-05T07:09:20.561Z,9.711581
2022-12-05T07:10:20.519Z,9.711769
2022-12-05T07:11:20.520Z,9.711931
2022-12-05T07:12:20.518Z,9.711697
2022-12-05T07:13:20.519Z,9.711735
2022-12-05T07:14:50.462Z,9.711678
2022-12-05T07:15:22.487Z,9.711714
2022-12-05T07:16:20.515Z,9.711714
2022-12-05T07:17:20.476Z,9.711752
2022-12-05T07:18:20.456Z,9.712160
2022-12-05T07:19:20.441Z,9.712256
2022-12-05T07:20:20.444Z,9.711836
2022-12-05T07:21:20.420Z,9.711498
2022-12-05T07:22:21.174Z,9.711623
2022-12-05T07:23:20.418Z,9.711691
2022-12-05T07:24:20.404Z,9.710999
2022-12-05T07:25:20.410Z,9.710876
2022-12-05T07:26:20.393Z,9.711064
2022-12-05T07:27:26.654Z,9.711567
2022-12-05T07:28:22.374Z,9.712118
2022-12-05T07:29:21.098Z,9.712247
2022-12-05T07:30:20.363Z,9.711991
2022-12-05T07:31:20.409Z,9.712119
2022-12-05T07:32:21.163Z,9.711996
2022-12-05T07:33:20.344Z,9.711699
2022-12-05T07:34:20.326Z,9.711827
2022-12-05T07:35:20.316Z,9.711963
2022-12-05T07:36:20.321Z,9.712033
2022-12-05T07:37:20.320Z,9.711948
2022-12-05T07:38:21.099Z,9.712148
2022-12-05T07:39:20.289Z,9.712162
2022-12-05T07:40:20.299Z,9.712691
2022-12-05T07:41:20.278Z,9.712099
2022-12-05T07:42:20.262Z,9.712073
2022-12-05T07:43:20.252Z,9.712522
2022-12-05T07:44:20.248Z,9.712321
2022-12-05T07:45:20.235Z,9.712076
2022-12-05T07:46:20.317Z,9.712129
2022-12-05T07:47:20.269Z,9.712376
2022-12-05T07:48:20.210Z,9.712362
2022-12-05T07:49:20.218Z,9.712513
2022-12-05T07:50:20.209Z,9.712233
2022-12-05T07:51:20.185Z,9.712209
2022-12-05T07:52:21.106Z,9.712293
2022-12-05T07:53:20.177Z,9.712106
2022-12-05T07:54:20.175Z,9.712081
2022-12-05T07:55:20.159Z,9.711842
2022-12-05T07:56:20.151Z,9.711995
2022-12-05T07:57:20.163Z,9.712303
2022-12-05T07:58:20.149Z,9.712338
2022-12-05T07:59:20.137Z,9.712407
2022-12-05T08:00:20.122Z,9.712146
2022-12-05T08:01:20.167Z,9.712124
2022-12-05T08:02:20.192Z,9.712102
2022-12-05T08:03:20.100Z,9.711913
2022-12-05T08:04:20.082Z,9.711849
2022-12-05T08:05:20.101Z,9.711828
2022-12-05T08:06:20.068Z,9.711814
2022-12-05T08:07:20.076Z,9.711782
2022-12-05T08:08:20.127Z,9.711772
2022-12-05T08:09:20.059Z,9.711777
2022-12-05T08:10:20.055Z,9.711775
2022-12-05T08:11:20.043Z,9.711722
2022-12-05T08:12:21.625Z,9.711790
2022-12-05T08:13:20.041Z,9.711691
2022-12-05T08:14:20.026Z,9.711697
2022-12-05T08:15:20.606Z,9.711785
2022-12-05T08:16:20.014Z,9.711798
2022-12-05T08:17:19.979Z,9.711715
2022-12-05T08:18:24.390Z,9.711712
2022-12-05T08:19:21.960Z,9.711740
2022-12-05T08:20:20.006Z,9.711690
2022-12-05T08:21:53.160Z,9.711681
2022-12-05T08:22:19.938Z,9.711656
2022-12-05T08:23:19.936Z,9.711740
2022-12-05T08:24:19.923Z,9.711639
2022-12-05T08:25:19.912Z,9.711651
2022-12-05T08:26:19.928Z,9.711674
2022-12-05T08:27:19.902Z,9.711662
2022-12-05T08:28:19.909Z,9.711700
2022-12-05T08:29:19.895Z,9.711685
2022-12-05T08:30:20.716Z,9.711607
2022-12-05T08:31:19.954Z,9.711725
2022-12-05T08:32:19.862Z,9.711623
2022-12-05T08:33:19.849Z,9.711609
2022-12-05T08:34:19.849Z,9.711587
2022-12-05T08:35:19.833Z,9.711645
2022-12-05T08:36:19.825Z,9.711664
2022-12-05T08:37:19.879Z,9.711629
2022-12-05T08:38:19.811Z,9.711713
2022-12-05T08:39:20.646Z,9.711619
2022-12-05T08:40:19.801Z,9.711714
2022-12-05T08:41:19.789Z,9.711699
2022-12-05T08:42:19.794Z,9.711791
2022-12-05T08:43:19.778Z,9.711687
2022-12-05T08:44:19.763Z,9.711632
2022-12-05T08:45:19.781Z,9.711647
2022-12-05T08:46:19.787Z,9.711596
2022-12-05T08:47:19.768Z,9.711761
2022-12-05T08:48:22.388Z,9.711667
2022-12-05T08:49:28.239Z,9.711577
2022-12-05T08:50:19.714Z,9.711482
2022-12-05T08:51:19.722Z,9.711602
2022-12-05T08:52:19.708Z,9.711856
2022-12-05T08:53:20.251Z,9.711824
2022-12-05T08:54:19.696Z,9.711858
2022-12-05T08:55:19.678Z,9.711756
2022-12-05T08:56:26.574Z,9.711794
2022-12-05T08:57:21.669Z,9.711713
2022-12-05T08:58:19.658Z,9.711619
2022-12-05T08:59:19.658Z,9.711674
2022-12-05T09:00:19.753Z,9.711772
2022-12-05T09:01:19.702Z,9.711755
2022-12-05T09:02:19.679Z,9.711874
2022-12-05T09:03:19.617Z,9.711974
2022-12-05T09:04:19.615Z,9.712218
2022-12-05T09:05:28.048Z,9.712136
2022-12-05T09:06:21.602Z,9.712105
2022-12-05T09:07:19.590Z,9.712173
2022-12-05T09:08:19.602Z,9.712613
2022-12-05T09:09:19.590Z,9.712610
2022-12-05T09:10:19.565Z,9.712435
2022-12-05T09:11:19.591Z,9.712333
2022-12-05T09:12:19.554Z,9.712214
2022-12-05T09:13:19.552Z,9.712159
2022-12-05T09:14:19.540Z,9.712208
2022-12-05T09:15:19.541Z,9.712046
2022-12-05T09:16:19.564Z,9.711907
2022-12-05T09:17:19.548Z,9.711669
2022-12-05T09:18:19.508Z,9.711686
2022-12-05T09:19:19.504Z,9.711753
2022-12-05T09:20:19.489Z,9.711838
2022-12-05T09:21:19.492Z,9.711812
2022-12-05T09:22:19.769Z,9.711708
2022-12-05T09:23:19.476Z,9.711775
2022-12-05T09:24:19.482Z,9.711739
2022-12-05T09:25:19.451Z,9.711603
2022-12-05T09:26:19.457Z,9.711560
2022-12-05T09:27:19.437Z,9.711597
2022-12-05T09:28:19.432Z,9.711705
2022-12-05T09:29:19.418Z,9.711625
2022-12-05T09:30:19.411Z,9.711621
2022-12-05T09:31:19.468Z,9.711749
2022-12-05T09:32:19.411Z,9.711703
2022-12-05T09:33:19.401Z,9.711698
2022-12-05T09:34:20.369Z,9.711722
2022-12-05T09:35:20.212Z,9.711708
2022-12-05T09:36:19.374Z,9.711827
2022-12-05T09:37:38.267Z,9.711837
2022-12-05T09:38:21.363Z,9.711798
2022-12-05T09:39:20.150Z,9.711894
2022-12-05T09:40:19.336Z,9.711700
2022-12-05T09:41:19.336Z,9.711649
2022-12-05T09:42:19.327Z,9.711733
2022-12-05T09:43:19.317Z,9.711737
2022-12-05T09:44:19.311Z,9.711720
2022-12-05T09:45:19.297Z,9.711769
2022-12-05T09:46:19.369Z,9.711802
2022-12-05T09:47:19.284Z,9.711758
2022-12-05T09:48:19.279Z,9.711738
2022-12-05T09:49:19.274Z,9.711713
2022-12-05T09:50:19.263Z,9.711835
2022-12-05T09:51:21.164Z,9.711986
2022-12-05T09:52:19.246Z,9.711840
2022-12-05T09:53:20.226Z,9.711745
2022-12-05T09:54:19.223Z,9.711821
2022-12-05T09:55:20.275Z,9.711743
2022-12-05T09:56:20.730Z,9.711825
2022-12-05T09:57:19.208Z,9.711818
2022-12-05T09:58:19.202Z,9.711797
2022-12-05T09:59:19.182Z,9.711777
2022-12-05T10:00:20.155Z,9.711720
2022-12-05T10:01:19.207Z,9.711721
2022-12-05T10:02:19.166Z,9.711733
2022-12-05T10:03:19.163Z,9.711671
2022-12-05T10:04:19.208Z,9.711878
2022-12-05T10:05:19.178Z,9.711804
2022-12-05T10:06:19.131Z,9.711831
2022-12-05T10:07:19.132Z,9.711929
2022-12-05T10:08:19.197Z,9.711823
2022-12-05T10:09:19.108Z,9.711761
2022-12-05T10:10:20.498Z,9.711762
2022-12-05T10:11:20.098Z,9.711764
2022-12-05T10:12:19.093Z,9.711801
2022-12-05T10:13:19.089Z,9.711705
2022-12-05T10:14:19.084Z,9.711628
2022-12-05T10:15:19.068Z,9.711658
2022-12-05T10:16:19.117Z,9.711807
2022-12-05T10:17:19.057Z,9.711827
2022-12-05T10:18:21.652Z,9.711805
2022-12-05T10:19:19.042Z,9.711675
2022-12-05T10:20:19.029Z,9.711691
2022-12-05T10:21:19.011Z,9.711682
2022-12-05T10:22:20.874Z,9.711755
2022-12-05T10:23:48.857Z,9.711821
2022-12-05T10:24:20.996Z,9.711872
2022-12-05T10:25:19.013Z,9.712028
2022-12-05T10:26:19.736Z,9.711915
2022-12-05T10:27:19.654Z,9.711883
2022-12-05T10:28:20.736Z,9.711931
2022-12-05T10:29:19.655Z,9.712043
2022-12-05T10:30:18.938Z,9.711785
2022-12-05T10:31:19.050Z,9.711916
2022-12-05T10:32:18.926Z,9.711808
2022-12-05T10:33:18.918Z,9.711796
2022-12-05T10:34:18.917Z,9.711798
2022-12-05T10:35:19.901Z,9.711876
2022-12-05T10:36:18.891Z,9.711835
2022-12-05T10:37:18.893Z,9.712002
2022-12-05T10:38:18.879Z,9.711951
2022-12-05T10:39:18.867Z,9.711760
2022-12-05T10:40:18.867Z,9.711769
2022-12-05T10:41:18.854Z,9.711987
2022-12-05T10:42:18.852Z,9.712603
2022-12-05T10:43:18.841Z,9.712341
2022-12-05T10:44:18.835Z,9.712232
2022-12-05T10:45:18.825Z,9.712094
2022-12-05T10:46:18.862Z,9.712080
2022-12-05T10:47:21.770Z,9.711949
2022-12-05T10:48:18.805Z,9.712168
2022-12-05T10:49:18.784Z,9.712020
2022-12-05T10:50:21.677Z,9.711769
2022-12-05T10:51:18.789Z,9.711741
2022-12-05T10:52:18.798Z,9.711832
2022-12-05T10:53:18.781Z,9.712123
2022-12-05T10:54:18.758Z,9.712042
2022-12-05T10:55:18.748Z,9.711805
2022-12-05T10:56:34.049Z,9.711723
2022-12-05T10:57:20.746Z,9.711648
2022-12-05T10:58:18.722Z,9.711680
2022-12-05T10:59:18.732Z,9.711703
2022-12-05T11:00:18.712Z,9.711696
2022-12-05T11:01:18.795Z,9.711691
2022-12-05T11:02:18.776Z,9.711647
2022-12-05T11:03:19.239Z,9.711596
2022-12-05T11:04:18.676Z,9.711551
2022-12-05T11:05:18.703Z,9.711633
2022-12-05T11:06:19.235Z,9.711798
2022-12-05T11:07:18.670Z,9.711757
2022-12-05T11:08:19.583Z,9.711785
2022-12-05T11:09:19.634Z,9.711663
2022-12-05T11:10:23.574Z,9.711631
2022-12-05T11:11:20.619Z,9.711687
2022-12-05T11:12:18.620Z,9.711634
2022-12-05T11:13:18.615Z,9.711620
2022-12-05T11:14:18.594Z,9.711692
2022-12-05T11:15:18.600Z,9.711714
2022-12-05T11:16:19.818Z,9.711612
2022-12-05T11:17:18.570Z,9.711766
2022-12-05T11:18:19.169Z,9.711715
2022-12-05T11:19:18.558Z,9.711684
2022-12-05T11:20:19.281Z,9.711702
2022-12-05T11:21:19.169Z,9.711633
2022-12-05T11:22:18.561Z,9.711707
2022-12-05T11:23:18.526Z,9.711713
2022-12-05T11:24:19.248Z,9.711570
2022-12-05T11:25:18.518Z,9.711729
2022-12-05T11:26:18.519Z,9.711688
2022-12-05T11:27:19.169Z,9.711823
2022-12-05T11:28:18.484Z,9.711719
2022-12-05T11:29:18.484Z,9.711591
2022-12-05T11:30:18.476Z,9.711868
2022-12-05T11:31:18.523Z,9.711809
2022-12-05T11:32:19.464Z,9.711753
2022-12-05T11:33:18.451Z,9.711880
2022-12-05T11:34:21.165Z,9.711923
2022-12-05T11:35:18.483Z,9.711823
2022-12-05T11:36:19.129Z,9.712008
2022-12-05T11:37:18.423Z,9.711712
2022-12-05T11:38:18.407Z,9.711709
2022-12-05T11:39:18.401Z,9.711926
2022-12-05T11:40:28.066Z,9.712103
2022-12-05T11:41:23.159Z,9.711974
2022-12-05T11:42:20.277Z,9.711858
2022-12-05T11:43:18.359Z,9.711934
2022-12-05T11:44:19.249Z,9.711845
2022-12-05T11:45:18.354Z,9.711905
2022-12-05T11:46:22.234Z,9.711754
2022-12-05T11:47:20.333Z,9.711781
2022-12-05T11:48:18.322Z,9.711726
2022-12-05T11:49:18.316Z,9.711740
2022-12-05T11:50:20.180Z,9.711844
2022-12-05T11:51:19.164Z,9.711729
2022-12-05T11:52:18.296Z,9.711794
2022-12-05T11:53:18.287Z,9.711699
2022-12-05T11:54:35.609Z,9.711780
2022-12-05T11:55:21.436Z,9.711736
2022-12-05T11:56:18.789Z,9.711635
2022-12-05T11:57:18.246Z,9.711654
2022-12-05T11:58:18.267Z,9.711677
2022-12-05T11:59:21.188Z,9.711709
2022-12-05T12:00:18.243Z,9.711739
2022-12-05T12:01:18.220Z,9.711763
2022-12-05T12:02:18.320Z,9.711827
2022-12-05T12:03:18.301Z,9.711743
2022-12-05T12:04:18.193Z,9.711686
2022-12-05T12:05:19.185Z,9.711683
2022-12-05T12:06:20.171Z,9.711635